Time;durP1;ratioP1;P1;durP2;ratioP2;P2;SDS_P1;SDS_P2;PMS_P1;PMS_P2;Temp;Humidity;BMP_temperature;BMP_pressure;BME280_temperature;BME280_humidity;BME280_pressure;Samples;Min_cycle;Max_cycle;Signal;HPM_P1;HPM_P2
2021/01/22 00:00:09;;;;;;;2.77;1.27;;;;;;;;;;5083073;28;21484;-76
2021/01/22 00:02:43;;;;;;;2.97;1.17;;;;;;;;;;5090879;28;20542;-75
2021/01/22 00:05:15;;;;;;;4.03;1.03;;;;;;;;;;5090136;28;20443;-76
2021/01/22 00:07:48;;;;;;;1.73;1.63;;;;;;;;;;5092745;28;20442;-75
2021/01/22 00:10:21;;;;;;;1.60;1.17;;;;;;;;;;5092901;28;20452;-76
2021/01/22 00:12:54;;;;;;;2.80;1.33;;;;;;;;;;5094235;28;20459;-75
2021/01/22 00:15:27;;;;;;;3.03;1.37;;;;;;;;;;5094561;28;20946;-75
2021/01/22 00:18:00;;;;;;;1.43;1.20;;;;;;;;;;5094147;28;20566;-75
2021/01/22 00:20:33;;;;;;;3.70;1.27;;;;;;;;;;5091981;28;20539;-74
2021/01/22 00:23:06;;;;;;;3.20;1.67;;;;;;;;;;5090391;28;20986;-76
2021/01/22 00:25:39;;;;;;;5.37;1.50;;;;;;;;;;5090020;28;20971;-75
2021/01/22 00:28:12;;;;;;;7.30;1.87;;;;;;;;;;5092078;28;20453;-76
2021/01/22 00:30:45;;;;;;;2.93;1.53;;;;;;;;;;5092169;28;20457;-76
2021/01/22 00:33:18;;;;;;;3.80;1.50;;;;;;;;;;5093078;28;20485;-75
2021/01/22 00:35:51;;;;;;;4.30;1.43;;;;;;;;;;5094204;28;20444;-76
2021/01/22 00:38:24;;;;;;;5.90;1.70;;;;;;;;;;5094074;28;20499;-76
2021/01/22 00:40:57;;;;;;;4.50;1.97;;;;;;;;;;5093546;28;20446;-76
2021/01/22 00:43:30;;;;;;;5.27;1.73;;;;;;;;;;5090823;28;20508;-75
2021/01/22 00:46:03;;;;;;;8.87;2.23;;;;;;;;;;5089690;28;20499;-76
2021/01/22 00:48:36;;;;;;;3.77;1.27;;;;;;;;;;5091995;28;20465;-76
2021/01/22 00:51:03;;;;;;;4.90;1.57;;;;;;;;;;5091250;28;20450;-76
2021/01/22 00:53:36;;;;;;;3.63;1.37;;;;;;;;;;5092389;28;20474;-75
2021/01/22 00:56:09;;;;;;;4.33;1.70;;;;;;;;;;5092679;28;20483;-76
2021/01/22 00:58:42;;;;;;;3.93;1.80;;;;;;;;;;5092788;28;20562;-75
2021/01/22 01:01:09;;;;;;;3.27;1.50;;;;;;;;;;5093295;28;20453;-76
2021/01/22 01:03:43;;;;;;;4.77;1.77;;;;;;;;;;5093105;28;20473;-76
2021/01/22 01:06:16;;;;;;;4.03;1.30;;;;;;;;;;5089686;28;20517;-77
2021/01/22 01:08:49;;;;;;;3.60;1.70;;;;;;;;;;5089936;28;20541;-75
2021/01/22 01:11:22;;;;;;;2.63;1.20;;;;;;;;;;5091381;28;21055;-75
2021/01/22 01:13:55;;;;;;;3.07;1.30;;;;;;;;;;5091266;28;20446;-77
2021/01/22 01:16:22;;;;;;;3.53;1.33;;;;;;;;;;5091582;28;20490;-76
2021/01/22 01:18:56;;;;;;;2.70;1.73;;;;;;;;;;5092941;28;20670;-76
2021/01/22 01:21:28;;;;;;;2.97;1.13;;;;;;;;;;5093273;28;20446;-77
2021/01/22 01:24:01;;;;;;;5.40;1.47;;;;;;;;;;5094764;28;20907;-76
2021/01/22 01:26:34;;;;;;;2.80;1.40;;;;;;;;;;5096685;28;20439;-77
2021/01/22 01:29:07;;;;;;;4.20;1.67;;;;;;;;;;5094487;28;20484;-76
2021/01/22 01:31:39;;;;;;;3.77;1.20;;;;;;;;;;5095291;28;20440;-76
2021/01/22 01:34:13;;;;;;;3.87;1.20;;;;;;;;;;5094135;28;21239;-76
2021/01/22 01:36:46;;;;;;;3.37;1.57;;;;;;;;;;5099100;28;20481;-75
2021/01/22 01:39:19;;;;;;;2.93;1.20;;;;;;;;;;5096200;28;20478;-76
2021/01/22 01:41:52;;;;;;;3.03;1.20;;;;;;;;;;5093075;28;21007;-75
2021/01/22 01:44:24;;;;;;;2.43;1.30;;;;;;;;;;5093085;28;20507;-75
2021/01/22 01:46:57;;;;;;;2.13;1.20;;;;;;;;;;5092381;28;20438;-75
2021/01/22 01:49:31;;;;;;;2.77;1.13;;;;;;;;;;5091259;28;20522;-75
2021/01/22 01:52:04;;;;;;;3.10;0.90;;;;;;;;;;5087884;28;21070;-75
2021/01/22 01:54:38;;;;;;;3.00;1.03;;;;;;;;;;5089874;28;20439;-75
2021/01/22 01:57:11;;;;;;;2.60;1.40;;;;;;;;;;5089872;28;20497;-76
2021/01/22 01:59:44;;;;;;;2.83;1.07;;;;;;;;;;5089090;28;20481;-76
2021/01/22 02:02:17;;;;;;;2.40;1.10;;;;;;;;;;5090214;28;20471;-75
2021/01/22 02:04:50;;;;;;;4.33;1.47;;;;;;;;;;5091405;28;20515;-75
2021/01/22 02:07:25;;;;;;;1.73;0.90;;;;;;;;;;5092058;28;20488;-75
2021/01/22 02:09:58;;;;;;;2.40;1.30;;;;;;;;;;5092295;28;20446;-76
2021/01/22 02:12:32;;;;;;;2.83;1.20;;;;;;;;;;5089152;28;20997;-76
2021/01/22 02:15:05;;;;;;;2.07;1.00;;;;;;;;;;5088317;28;20810;-76
2021/01/22 02:17:38;;;;;;;2.40;1.07;;;;;;;;;;5089154;28;20481;-75
2021/01/22 02:20:16;;;;;;;1.77;1.10;;;;;;;;;;5090073;28;20451;-76
2021/01/22 02:22:49;;;;;;;1.60;1.27;;;;;;;;;;5089992;28;20467;-75
2021/01/22 02:25:23;;;;;;;1.70;1.07;;;;;;;;;;5091108;28;20448;-77
2021/01/22 02:27:56;;;;;;;3.27;1.10;;;;;;;;;;5091701;28;20448;-76
2021/01/22 02:30:29;;;;;;;1.10;0.87;;;;;;;;;;5092193;28;20881;-76
2021/01/22 02:33:05;;;;;;;2.53;1.00;;;;;;;;;;5091571;28;20524;-76
2021/01/22 02:35:38;;;;;;;1.17;0.90;;;;;;;;;;5088063;28;20468;-75
2021/01/22 02:38:11;;;;;;;1.25;1.10;;;;;;;;;;5087896;28;20222;-75
2021/01/22 02:40:45;;;;;;;3.08;1.17;;;;;;;;;;5089797;28;20712;-74
2021/01/22 02:43:19;;;;;;;1.27;1.10;;;;;;;;;;5088908;28;20215;-76
2021/01/22 02:45:51;;;;;;;1.73;1.00;;;;;;;;;;5089887;28;20204;-77
2021/01/22 02:48:24;;;;;;;2.10;1.48;;;;;;;;;;5091104;28;20200;-74
2021/01/22 02:50:57;;;;;;;1.48;1.30;;;;;;;;;;5098780;28;20206;-75
2021/01/22 02:53:30;;;;;;;2.03;1.50;;;;;;;;;;5097858;28;20221;-75
2021/01/22 02:56:04;;;;;;;4.03;2.00;;;;;;;;;;5098219;28;20220;-75
2021/01/22 02:58:40;;;;;;;2.58;2.38;;;;;;;;;;5093255;28;20607;-75
2021/01/22 03:01:15;;;;;;;2.17;1.98;;;;;;;;;;5095331;28;20612;-77
2021/01/22 03:03:46;;;;;;;2.20;2.00;;;;;;;;;;5096116;28;20274;-77
2021/01/22 03:06:22;;;;;;;3.13;2.30;;;;;;;;;;5096661;28;20237;-77
2021/01/22 03:08:56;;;;;;;2.40;2.20;;;;;;;;;;5096593;28;20189;-77
2021/01/22 03:11:31;;;;;;;2.45;2.25;;;;;;;;;;5098665;28;20189;-78
2021/01/22 03:14:05;;;;;;;2.80;2.50;;;;;;;;;;5098390;28;20314;-77
2021/01/22 03:16:37;;;;;;;2.45;2.25;;;;;;;;;;5097415;28;20221;-77
2021/01/22 03:19:05;;;;;;;3.38;3.08;;;;;;;;;;5096641;28;20203;-77
2021/01/22 03:21:38;;;;;;;2.63;2.42;;;;;;;;;;5093957;28;20325;-77
2021/01/22 03:24:11;;;;;;;2.70;2.50;;;;;;;;;;5095406;28;20551;-76
2021/01/22 03:26:43;;;;;;;2.80;2.60;;;;;;;;;;5096528;28;20198;-76
2021/01/22 03:29:17;;;;;;;3.33;2.78;;;;;;;;;;5096191;28;20185;-77
2021/01/22 03:31:50;;;;;;;2.90;2.70;;;;;;;;;;5096690;28;20221;-76
2021/01/22 03:34:26;;;;;;;3.05;2.75;;;;;;;;;;5098208;28;20186;-77
2021/01/22 03:36:59;;;;;;;3.33;3.03;;;;;;;;;;5098358;28;20682;-77
2021/01/22 03:39:35;;;;;;;3.38;3.10;;;;;;;;;;5097073;28;20208;-76
2021/01/22 03:42:08;;;;;;;3.00;2.70;;;;;;;;;;5095616;28;20635;-76
2021/01/22 03:44:42;;;;;;;3.70;3.40;;;;;;;;;;5094450;28;20208;-76
2021/01/22 03:47:14;;;;;;;4.40;4.00;;;;;;;;;;5095834;28;20204;-77
2021/01/22 03:49:47;;;;;;;4.43;4.03;;;;;;;;;;5095758;28;20712;-76
2021/01/22 03:52:20;;;;;;;3.55;3.22;;;;;;;;;;5096363;28;20227;-77
2021/01/22 03:54:53;;;;;;;4.43;4.03;;;;;;;;;;5096804;28;20203;-76
2021/01/22 03:57:26;;;;;;;4.40;4.00;;;;;;;;;;5098224;28;20243;-77
2021/01/22 03:59:59;;;;;;;4.70;4.30;;;;;;;;;;5096370;28;20252;-76
2021/01/22 04:02:32;;;;;;;4.95;4.55;;;;;;;;;;5094513;28;20228;-77
2021/01/22 04:05:05;;;;;;;4.28;3.88;;;;;;;;;;5090385;28;20642;-77
2021/01/22 04:07:38;;;;;;;5.70;5.20;;;;;;;;;;5091221;28;20590;-77
2021/01/22 04:10:11;;;;;;;5.05;4.05;;;;;;;;;;5092607;28;20209;-76
2021/01/22 04:12:44;;;;;;;4.72;4.32;;;;;;;;;;5092569;28;20218;-76
2021/01/22 04:15:17;;;;;;;5.00;4.20;;;;;;;;;;5091401;28;20197;-76
2021/01/22 04:17:50;;;;;;;5.50;4.70;;;;;;;;;;5093911;28;20222;-77
2021/01/22 04:20:23;;;;;;;7.45;4.53;;;;;;;;;;5094418;28;20280;-76
2021/01/22 04:22:55;;;;;;;5.13;4.63;;;;;;;;;;5094543;28;20218;-77
2021/01/22 04:25:28;;;;;;;4.80;4.18;;;;;;;;;;5093990;28;20193;-76
2021/01/22 04:28:01;;;;;;;8.40;4.05;;;;;;;;;;5090047;28;20194;-76
2021/01/22 04:30:35;;;;;;;5.00;4.10;;;;;;;;;;5090922;28;20204;-77
2021/01/22 04:33:07;;;;;;;4.43;3.65;;;;;;;;;;5091427;28;20217;-76
2021/01/22 04:35:40;;;;;;;4.30;3.90;;;;;;;;;;5092143;28;20288;-77
2021/01/22 04:38:13;;;;;;;4.90;4.22;;;;;;;;;;5091795;28;20238;-77
2021/01/22 04:40:46;;;;;;;6.28;4.43;;;;;;;;;;5088705;28;20203;-76
2021/01/22 04:43:19;;;;;;;4.45;4.05;;;;;;;;;;5089968;28;20218;-76
2021/01/22 04:45:52;;;;;;;4.93;4.00;;;;;;;;;;5091336;28;20722;-77
2021/01/22 04:48:26;;;;;;;4.25;3.40;;;;;;;;;;5091977;28;20225;-76
2021/01/22 04:50:59;;;;;;;3.70;3.40;;;;;;;;;;5091577;28;20290;-76
2021/01/22 04:53:33;;;;;;;3.50;3.20;;;;;;;;;;5092928;28;20269;-77
2021/01/22 04:56:07;;;;;;;4.95;4.07;;;;;;;;;;5092662;28;20194;-76
2021/01/22 04:58:42;;;;;;;4.53;3.90;;;;;;;;;;5092673;28;20201;-76
2021/01/22 05:01:17;;;;;;;3.90;3.60;;;;;;;;;;5053352;28;20201;-77
2021/01/22 05:03:50;;;;;;;6.15;3.55;;;;;;;;;;5042437;28;20264;-77
2021/01/22 05:06:23;;;;;;;4.65;3.90;;;;;;;;;;5036782;28;20198;-76
2021/01/22 05:08:50;;;;;;;4.78;3.58;;;;;;;;;;5034633;28;20198;-76
2021/01/22 05:11:23;;;;;;;4.60;3.97;;;;;;;;;;5051404;28;20203;-76
2021/01/22 05:13:57;;;;;;;4.55;4.15;;;;;;;;;;5050191;28;20198;-77
2021/01/22 05:16:31;;;;;;;4.05;3.67;;;;;;;;;;5052554;28;20308;-77
2021/01/22 05:19:12;;;;;;;4.38;3.72;;;;;;;;;;5053317;28;20281;-76
2021/01/22 05:21:45;;;;;;;4.47;3.83;;;;;;;;;;5052174;28;20221;-75
2021/01/22 05:24:20;;;;;;;5.32;4.40;;;;;;;;;;5052383;28;20243;-76
2021/01/22 05:26:58;;;;;;;4.60;4.20;;;;;;;;;;5037686;28;20716;-76
2021/01/22 05:29:32;;;;;;;5.80;4.35;;;;;;;;;;5044113;28;20202;-76
2021/01/22 05:32:24;;;;;;;6.28;5.40;;;;;;;;;;5051089;28;20775;-75
2021/01/22 05:34:57;;;;;;;6.30;4.90;;;;;;;;;;5050363;28;20206;-77
2021/01/22 05:37:30;;;;;;;4.68;4.28;;;;;;;;;;5051438;28;20271;-76
2021/01/22 05:40:12;;;;;;;5.32;4.82;;;;;;;;;;5052665;28;20221;-76
2021/01/22 05:42:46;;;;;;;4.70;4.25;;;;;;;;;;5050915;28;20221;-76
2021/01/22 05:45:20;;;;;;;5.45;4.50;;;;;;;;;;5038995;28;20198;-76
2021/01/22 05:47:54;;;;;;;4.88;4.13;;;;;;;;;;5033855;28;20218;-76
2021/01/22 05:50:26;;;;;;;5.18;4.68;;;;;;;;;;5045757;28;20205;-76
2021/01/22 05:53:11;;;;;;;6.30;5.10;;;;;;;;;;5050448;28;20714;-76
2021/01/22 05:55:44;;;;;;;6.30;5.05;;;;;;;;;;5050210;28;20281;-76
2021/01/22 05:58:26;;;;;;;6.63;5.63;;;;;;;;;;5051717;28;20675;-78
2021/01/22 06:01:13;;;;;;;7.72;5.35;;;;;;;;;;5087955;28;20225;-78
2021/01/22 06:03:47;;;;;;;7.15;5.20;;;;;;;;;;5091228;28;20221;-77
2021/01/22 06:06:21;;;;;;;5.82;5.22;;;;;;;;;;5090497;28;20194;-76
2021/01/22 06:08:49;;;;;;;6.95;5.70;;;;;;;;;;5088154;28;20511;-76
2021/01/22 06:11:22;;;;;;;5.30;4.80;;;;;;;;;;5089709;28;20201;-76
2021/01/22 06:13:56;;;;;;;9.15;5.72;;;;;;;;;;5089789;28;20241;-76
2021/01/22 06:16:30;;;;;;;6.10;5.18;;;;;;;;;;5090700;28;20291;-76
2021/01/22 06:19:04;;;;;;;6.00;4.35;;;;;;;;;;5091019;28;20195;-77
2021/01/22 06:21:39;;;;;;;8.75;5.38;;;;;;;;;;5092540;28;20200;-76
2021/01/22 06:24:12;;;;;;;8.45;5.68;;;;;;;;;;5091679;28;20192;-77
2021/01/22 06:26:46;;;;;;;8.30;5.65;;;;;;;;;;5092321;28;20254;-76
2021/01/22 06:29:19;;;;;;;6.35;5.63;;;;;;;;;;5088920;28;20198;-77
2021/01/22 06:31:53;;;;;;;6.15;4.40;;;;;;;;;;5088413;28;20216;-76
2021/01/22 06:34:27;;;;;;;8.25;5.50;;;;;;;;;;5089877;28;20623;-77
2021/01/22 06:37:01;;;;;;;5.97;5.03;;;;;;;;;;5090116;28;20240;-82
2021/01/22 06:39:33;;;;;;;5.50;4.05;;;;;;;;;;5090408;28;20200;-81
2021/01/22 06:42:07;;;;;;;4.82;4.20;;;;;;;;;;5091480;28;20251;-79
2021/01/22 06:44:40;;;;;;;3.17;2.88;;;;;;;;;;5092226;28;20204;-76
2021/01/22 06:47:13;;;;;;;4.15;3.75;;;;;;;;;;5092166;28;20208;-77
2021/01/22 06:49:46;;;;;;;4.05;3.58;;;;;;;;;;5091945;28;20201;-77
2021/01/22 06:52:19;;;;;;;3.28;2.97;;;;;;;;;;5088006;28;20227;-77
2021/01/22 06:55:00;;;;;;;3.05;2.75;;;;;;;;;;5086690;28;20194;-79
2021/01/22 06:57:34;;;;;;;3.25;2.80;;;;;;;;;;5090046;28;20736;-77
2021/01/22 07:00:35;;;;;;;2.90;2.60;;;;;;;;;;5088937;28;20221;-76
2021/01/22 07:03:08;;;;;;;3.85;2.70;;;;;;;;;;5089534;28;20669;-77
2021/01/22 07:05:42;;;;;;;3.83;2.97;;;;;;;;;;5092303;28;20202;-77
2021/01/22 07:08:14;;;;;;;3.97;2.75;;;;;;;;;;5092334;28;20197;-77
2021/01/22 07:10:56;;;;;;;3.13;2.80;;;;;;;;;;5092145;28;20201;-76
2021/01/22 07:13:38;;;;;;;4.32;2.75;;;;;;;;;;5088753;28;20261;-76
2021/01/22 07:16:11;;;;;;;3.50;3.20;;;;;;;;;;5084553;28;20197;-76
2021/01/22 07:18:46;;;;;;;5.25;3.53;;;;;;;;;;5089428;28;20285;-76
2021/01/22 07:21:24;;;;;;;3.40;2.85;;;;;;;;;;5088649;28;20188;-76
2021/01/22 07:23:57;;;;;;;3.42;3.03;;;;;;;;;;5090249;28;20193;-76
2021/01/22 07:26:37;;;;;;;2.97;2.75;;;;;;;;;;5091001;28;20208;-76
2021/01/22 07:29:15;;;;;;;3.55;2.85;;;;;;;;;;5090603;28;20504;-76
2021/01/22 07:31:50;;;;;;;5.85;2.72;;;;;;;;;;5092002;28;20217;-77
2021/01/22 07:34:31;;;;;;;6.93;3.00;;;;;;;;;;5086893;28;20666;-77
2021/01/22 07:37:05;;;;;;;4.45;2.90;;;;;;;;;;5086031;28;20743;-79
2021/01/22 07:39:44;;;;;;;3.75;3.08;;;;;;;;;;5091870;28;22102;-76
2021/01/22 07:42:18;;;;;;;5.60;2.75;;;;;;;;;;5093388;28;20694;-76
2021/01/22 07:44:51;;;;;;;3.92;2.30;;;;;;;;;;5093769;28;20212;-77
2021/01/22 07:47:26;;;;;;;4.50;2.50;;;;;;;;;;5093939;28;20208;-76
2021/01/22 07:49:59;;;;;;;3.22;2.28;;;;;;;;;;5081946;28;20208;-77
2021/01/22 07:52:35;;;;;;;2.78;2.25;;;;;;;;;;5075416;28;20225;-77
2021/01/22 07:55:17;;;;;;;2.35;2.15;;;;;;;;;;5079058;28;20197;-77
2021/01/22 07:58:02;;;;;;;2.92;2.45;;;;;;;;;;5088624;28;20221;-76
2021/01/22 08:00:37;;;;;;;2.97;2.30;;;;;;;;;;5085996;28;20223;-76
2021/01/22 08:03:13;;;;;;;2.40;2.20;;;;;;;;;;5092974;28;20278;-76
2021/01/22 08:05:46;;;;;;;3.00;2.08;;;;;;;;;;5093168;28;20241;-76
2021/01/22 08:08:21;;;;;;;4.63;2.20;;;;;;;;;;5092468;28;20190;-75
2021/01/22 08:10:48;;;;;;;2.28;1.98;;;;;;;;;;5092190;28;20279;-76
2021/01/22 08:13:21;;;;;;;2.30;2.00;;;;;;;;;;5090984;28;20266;-77
2021/01/22 08:16:02;;;;;;;2.55;1.90;;;;;;;;;;5091227;28;20559;-78
2021/01/22 08:18:38;;;;;;;1.90;1.65;;;;;;;;;;5092058;28;20201;-77
2021/01/22 08:21:11;;;;;;;1.88;1.55;;;;;;;;;;5092540;28;20198;-77
2021/01/22 08:23:47;;;;;;;1.80;1.35;;;;;;;;;;5093956;28;20221;-76
2021/01/22 08:26:20;;;;;;;3.78;1.63;;;;;;;;;;5094163;28;20634;-77
2021/01/22 08:28:54;;;;;;;1.27;1.15;;;;;;;;;;5094594;28;20539;-76
2021/01/22 08:31:27;;;;;;;1.40;1.27;;;;;;;;;;5092795;28;20272;-77
2021/01/22 08:34:00;;;;;;;2.25;1.45;;;;;;;;;;5090581;28;20208;-76
2021/01/22 08:36:32;;;;;;;2.17;1.10;;;;;;;;;;5090603;28;20204;-77
2021/01/22 08:39:06;;;;;;;2.38;1.48;;;;;;;;;;5092224;28;20250;-77
2021/01/22 08:41:39;;;;;;;3.28;1.80;;;;;;;;;;5092324;28;20288;-77
2021/01/22 08:44:12;;;;;;;2.45;1.60;;;;;;;;;;5092044;28;20600;-76
2021/01/22 08:46:47;;;;;;;2.05;1.50;;;;;;;;;;5093799;28;20208;-77
2021/01/22 08:49:19;;;;;;;1.42;1.33;;;;;;;;;;5093789;28;20650;-77
2021/01/22 08:51:52;;;;;;;2.05;1.50;;;;;;;;;;5094390;28;20228;-76
2021/01/22 08:54:33;;;;;;;1.42;1.20;;;;;;;;;;5093572;28;20250;-77
2021/01/22 08:57:09;;;;;;;2.28;1.40;;;;;;;;;;5088167;28;20682;-77
2021/01/22 08:59:48;;;;;;;1.40;1.15;;;;;;;;;;5089247;28;20964;-75
2021/01/22 09:02:30;;;;;;;2.88;1.60;;;;;;;;;;5092253;28;20276;-76
2021/01/22 09:05:04;;;;;;;3.08;1.48;;;;;;;;;;5073882;28;20193;-77
2021/01/22 09:07:37;;;;;;;1.75;1.40;;;;;;;;;;5092022;28;20566;-78
2021/01/22 09:10:18;;;;;;;2.00;1.30;;;;;;;;;;5091629;28;20534;-78
2021/01/22 09:12:52;;;;;;;1.63;1.20;;;;;;;;;;5088249;28;20217;-76
2021/01/22 09:15:25;;;;;;;1.25;1.05;;;;;;;;;;5085369;28;20221;-76
2021/01/22 09:17:57;;;;;;;2.22;1.42;;;;;;;;;;5083936;28;20678;-76
2021/01/22 09:20:25;;;;;;;1.60;1.50;;;;;;;;;;5091895;28;20232;-77
2021/01/22 09:23:04;;;;;;;6.43;1.70;;;;;;;;;;5091734;28;20253;-76
2021/01/22 09:25:37;;;;;;;2.60;1.58;;;;;;;;;;5093646;28;20348;-76
2021/01/22 09:28:10;;;;;;;1.80;1.40;;;;;;;;;;5083415;28;20628;-76
2021/01/22 09:30:37;;;;;;;2.35;1.50;;;;;;;;;;5073264;28;20201;-76
2021/01/22 09:33:04;;;;;;;2.35;1.70;;;;;;;;;;5092925;28;20412;-77
2021/01/22 09:35:37;;;;;;;1.73;1.20;;;;;;;;;;5089360;28;20291;-76
2021/01/22 09:38:10;;;;;;;1.73;1.38;;;;;;;;;;5088774;28;20310;-78
2021/01/22 09:40:36;;;;;;;1.90;1.42;;;;;;;;;;5091432;28;20258;-77
2021/01/22 09:43:09;;;;;;;2.90;1.50;;;;;;;;;;5089575;28;20222;-77
2021/01/22 09:45:44;;;;;;;2.35;1.30;;;;;;;;;;5091233;28;20283;-76
2021/01/22 09:48:18;;;;;;;2.47;1.60;;;;;;;;;;5086844;28;20207;-78
2021/01/22 09:50:51;;;;;;;2.72;1.60;;;;;;;;;;5093729;28;20198;-76
2021/01/22 09:53:23;;;;;;;2.75;1.50;;;;;;;;;;5092932;28;20596;-77
2021/01/22 09:55:51;;;;;;;2.50;1.70;;;;;;;;;;5093011;28;20197;-76
2021/01/22 09:58:18;;;;;;;2.65;1.73;;;;;;;;;;5087772;28;20311;-77
2021/01/22 10:00:45;;;;;;;3.10;1.80;;;;;;;;;;5088327;28;20225;-77
2021/01/22 10:03:12;;;;;;;3.03;2.08;;;;;;;;;;5090634;28;20302;-77
2021/01/22 10:05:45;;;;;;;3.70;2.63;;;;;;;;;;5072178;28;20304;-77
2021/01/22 10:08:20;;;;;;;3.78;2.40;;;;;;;;;;5088875;28;20212;-76
2021/01/22 10:10:53;;;;;;;8.20;2.50;;;;;;;;;;5092239;28;20199;-75
2021/01/22 10:13:25;;;;;;;3.10;2.53;;;;;;;;;;5093140;28;20283;-76
2021/01/22 10:15:53;;;;;;;4.53;2.30;;;;;;;;;;5093128;28;20533;-76
2021/01/22 10:18:20;;;;;;;2.90;2.03;;;;;;;;;;5092700;28;20554;-76
2021/01/22 10:20:49;;;;;;;7.73;2.27;;;;;;;;;;5089175;28;20484;-76
2021/01/22 10:23:22;;;;;;;3.50;1.83;;;;;;;;;;5087710;28;20466;-76
2021/01/22 10:25:55;;;;;;;4.33;2.37;;;;;;;;;;5073312;28;20606;-76
2021/01/22 10:28:21;;;;;;;4.10;2.20;;;;;;;;;;5070104;28;21006;-77
2021/01/22 10:30:59;;;;;;;2.53;2.10;;;;;;;;;;5071514;28;20450;-76
2021/01/22 10:33:25;;;;;;;3.53;2.13;;;;;;;;;;5089765;28;20514;-76
2021/01/22 10:35:58;;;;;;;3.00;2.10;;;;;;;;;;5092272;28;20603;-76
2021/01/22 10:38:31;;;;;;;3.25;2.08;;;;;;;;;;5092617;28;20951;-75
2021/01/22 10:41:05;;;;;;;3.17;2.00;;;;;;;;;;5092758;28;20207;-74
2021/01/22 10:43:38;;;;;;;2.70;1.90;;;;;;;;;;5087981;28;20971;-75
2021/01/22 10:46:12;;;;;;;4.80;1.77;;;;;;;;;;5088824;28;21640;-75
2021/01/22 10:48:44;;;;;;;7.33;1.80;;;;;;;;;;5090639;28;20536;-75
2021/01/22 10:51:17;;;;;;;2.00;1.80;;;;;;;;;;5089838;28;20533;-76
2021/01/22 10:53:50;;;;;;;2.37;2.00;;;;;;;;;;5090618;28;20541;-75
2021/01/22 10:56:17;;;;;;;3.63;2.03;;;;;;;;;;5072437;28;20877;-74
2021/01/22 10:58:43;;;;;;;3.13;2.20;;;;;;;;;;5084493;28;20916;-75
2021/01/22 11:01:11;;;;;;;5.20;2.10;;;;;;;;;;5091613;28;20883;-76
2021/01/22 11:03:39;;;;;;;2.67;2.10;;;;;;;;;;5089898;28;20880;-74
2021/01/22 11:06:06;;;;;;;2.67;1.97;;;;;;;;;;5082984;28;20548;-77
2021/01/22 11:08:33;;;;;;;7.73;3.60;;;;;;;;;;5088118;28;20465;-76
2021/01/22 11:11:00;;;;;;;6.33;3.00;;;;;;;;;;5093198;28;20446;-76
2021/01/22 11:13:33;;;;;;;8.90;5.40;;;;;;;;;;5093422;28;20474;-76
2021/01/22 11:16:05;;;;;;;5.80;3.80;;;;;;;;;;5082167;28;20537;-76
2021/01/22 11:18:39;;;;;;;9.23;5.93;;;;;;;;;;5094921;28;20492;-75
2021/01/22 11:21:06;;;;;;;4.40;2.80;;;;;;;;;;5096201;28;20445;-77
2021/01/22 11:23:39;;;;;;;10.33;3.47;;;;;;;;;;5094709;28;20926;-76
2021/01/22 11:26:11;;;;;;;11.77;4.80;;;;;;;;;;5093789;28;20478;-76
2021/01/22 11:28:44;;;;;;;5.43;4.33;;;;;;;;;;5092603;28;20447;-76
2021/01/22 11:31:17;;;;;;;4.93;3.20;;;;;;;;;;5091738;28;20546;-77
2021/01/22 11:33:51;;;;;;;3.33;2.80;;;;;;;;;;5093567;28;20923;-76
2021/01/22 11:36:24;;;;;;;9.73;4.87;;;;;;;;;;5093109;28;20445;-77
2021/01/22 11:38:57;;;;;;;10.73;4.00;;;;;;;;;;5093417;28;20872;-76
2021/01/22 11:41:29;;;;;;;11.83;4.17;;;;;;;;;;5092168;28;20493;-75
2021/01/22 11:44:02;;;;;;;4.10;3.30;;;;;;;;;;5095995;28;20818;-76
2021/01/22 11:46:29;;;;;;;8.57;5.70;;;;;;;;;;5094044;28;20446;-76
2021/01/22 11:49:03;;;;;;;9.90;3.90;;;;;;;;;;5095504;28;20529;-76
2021/01/22 11:51:30;;;;;;;7.97;3.33;;;;;;;;;;5091175;28;20544;-78
2021/01/22 11:54:05;;;;;;;17.03;7.37;;;;;;;;;;5090861;28;20468;-76
2021/01/22 11:56:37;;;;;;;6.60;3.73;;;;;;;;;;5093893;28;20545;-75
2021/01/22 11:59:10;;;;;;;10.37;4.40;;;;;;;;;;5093311;28;20442;-79
2021/01/22 12:01:43;;;;;;;16.73;5.63;;;;;;;;;;5092888;28;20511;-78
2021/01/22 12:04:16;;;;;;;15.43;5.60;;;;;;;;;;5094489;28;20549;-77
2021/01/22 12:06:49;;;;;;;6.23;3.60;;;;;;;;;;5094042;28;20449;-76
2021/01/22 12:09:22;;;;;;;5.97;3.43;;;;;;;;;;5095820;28;20990;-79
2021/01/22 12:11:55;;;;;;;17.43;7.07;;;;;;;;;;5094874;28;20565;-77
2021/01/22 12:14:29;;;;;;;9.77;5.10;;;;;;;;;;5092575;28;20448;-78
2021/01/22 12:17:02;;;;;;;13.67;6.13;;;;;;;;;;5091670;28;20859;-77
2021/01/22 12:19:36;;;;;;;13.73;5.37;;;;;;;;;;5093883;28;20447;-78
2021/01/22 12:22:08;;;;;;;12.83;5.50;;;;;;;;;;5093059;28;20459;-78
2021/01/22 12:24:41;;;;;;;14.13;4.83;;;;;;;;;;5094497;28;20466;-76
2021/01/22 12:27:14;;;;;;;21.50;8.20;;;;;;;;;;5094206;28;20454;-77
2021/01/22 12:29:48;;;;;;;15.70;5.20;;;;;;;;;;5094929;28;20445;-78
2021/01/22 12:32:21;;;;;;;7.87;4.30;;;;;;;;;;5095007;28;20466;-76
2021/01/22 12:34:56;;;;;;;6.93;3.67;;;;;;;;;;5094306;28;20450;-78
2021/01/22 12:37:28;;;;;;;13.60;4.70;;;;;;;;;;5089952;28;20566;-77
2021/01/22 12:40:01;;;;;;;8.83;3.80;;;;;;;;;;5090992;28;20446;-76
2021/01/22 12:42:34;;;;;;;9.30;4.10;;;;;;;;;;5092132;28;20474;-77
2021/01/22 12:45:07;;;;;;;4.97;2.57;;;;;;;;;;5091924;28;20442;-78
2021/01/22 12:47:40;;;;;;;4.23;2.67;;;;;;;;;;5092847;28;21009;-76
2021/01/22 12:50:14;;;;;;;7.67;3.07;;;;;;;;;;5074325;28;20451;-77
2021/01/22 12:52:47;;;;;;;12.03;4.57;;;;;;;;;;5091424;28;20509;-77
2021/01/22 12:55:19;;;;;;;5.90;3.70;;;;;;;;;;5083980;28;20446;-77
2021/01/22 12:57:46;;;;;;;10.13;4.47;;;;;;;;;;5091813;28;20478;-79
2021/01/22 13:00:19;;;;;;;10.33;5.20;;;;;;;;;;5088242;28;20515;-79
2021/01/22 13:02:52;;;;;;;5.70;3.07;;;;;;;;;;5090750;28;20515;-79
2021/01/22 13:05:26;;;;;;;8.40;3.60;;;;;;;;;;5092141;28;20627;-78
2021/01/22 13:07:58;;;;;;;6.57;3.70;;;;;;;;;;5091756;28;20435;-77
2021/01/22 13:10:31;;;;;;;10.20;4.90;;;;;;;;;;5091263;28;20457;-79
2021/01/22 13:13:05;;;;;;;9.50;4.27;;;;;;;;;;5093653;28;20859;-79
2021/01/22 13:15:38;;;;;;;7.57;4.20;;;;;;;;;;5093422;28;20445;-78
2021/01/22 13:18:11;;;;;;;11.17;5.77;;;;;;;;;;5089101;28;21000;-77
2021/01/22 13:20:46;;;;;;;6.00;3.30;;;;;;;;;;5089799;28;20458;-78
2021/01/22 13:23:19;;;;;;;10.97;3.70;;;;;;;;;;5091324;28;20468;-78
2021/01/22 13:25:52;;;;;;;11.20;4.73;;;;;;;;;;5091806;28;20451;-78
2021/01/22 13:28:25;;;;;;;12.20;5.37;;;;;;;;;;5091867;28;21071;-77
2021/01/22 13:30:58;;;;;;;11.10;4.95;;;;;;;;;;5092822;28;20830;-77
2021/01/22 13:33:31;;;;;;;10.63;4.30;;;;;;;;;;5092031;28;20217;-78
2021/01/22 13:36:05;;;;;;;10.63;4.90;;;;;;;;;;5093282;28;20486;-78
2021/01/22 13:38:38;;;;;;;11.90;5.00;;;;;;;;;;5092726;28;20488;-79
2021/01/22 13:41:10;;;;;;;7.78;3.95;;;;;;;;;;5087746;28;20444;-76
2021/01/22 13:43:43;;;;;;;8.30;4.00;;;;;;;;;;5089858;28;20300;-77
2021/01/22 13:46:16;;;;;;;10.88;5.10;;;;;;;;;;5091402;28;20199;-78
2021/01/22 13:48:49;;;;;;;20.43;8.67;;;;;;;;;;5090810;28;20699;-79
2021/01/22 13:51:23;;;;;;;11.93;5.22;;;;;;;;;;5091879;28;20444;-78
2021/01/22 13:53:55;;;;;;;8.98;3.35;;;;;;;;;;5093029;28;20289;-79
2021/01/22 13:56:28;;;;;;;13.27;4.97;;;;;;;;;;5093047;28;20201;-77
2021/01/22 13:59:01;;;;;;;15.70;5.43;;;;;;;;;;5093514;28;20236;-76
2021/01/22 14:01:34;;;;;;;8.45;3.97;;;;;;;;;;5091963;28;20231;-76
2021/01/22 14:04:07;;;;;;;16.05;6.50;;;;;;;;;;5088949;28;20294;-78
2021/01/22 14:06:41;;;;;;;14.77;6.78;;;;;;;;;;5090003;28;20280;-76
2021/01/22 14:09:13;;;;;;;9.75;4.88;;;;;;;;;;5090785;28;20199;-77
2021/01/22 14:11:46;;;;;;;14.98;6.03;;;;;;;;;;5091117;28;20212;-77
2021/01/22 14:14:19;;;;;;;20.55;8.55;;;;;;;;;;5091178;28;20201;-78
2021/01/22 14:16:52;;;;;;;25.70;9.90;;;;;;;;;;5081473;28;20222;-78
2021/01/22 14:19:24;;;;;;;19.30;8.48;;;;;;;;;;5092973;28;20284;-78
2021/01/22 14:21:58;;;;;;;21.45;8.65;;;;;;;;;;5092510;28;20603;-79
2021/01/22 14:24:31;;;;;;;27.33;9.43;;;;;;;;;;5091868;28;20294;-76
2021/01/22 14:27:06;;;;;;;13.20;6.70;;;;;;;;;;5088303;28;20898;-78
2021/01/22 14:29:33;;;;;;;12.70;5.25;;;;;;;;;;5085349;28;20204;-77
2021/01/22 14:32:14;;;;;;;8.43;4.72;;;;;;;;;;5086601;28;20611;-78
2021/01/22 14:34:41;;;;;;;10.70;4.75;;;;;;;;;;5087111;28;20288;-76
2021/01/22 14:37:09;;;;;;;11.60;5.75;;;;;;;;;;5087224;28;20204;-76
2021/01/22 14:39:35;;;;;;;13.32;4.78;;;;;;;;;;5085167;28;20205;-77
2021/01/22 14:42:11;;;;;;;12.57;6.18;;;;;;;;;;5084686;28;20612;-76
2021/01/22 14:44:38;;;;;;;9.63;4.38;;;;;;;;;;5087161;28;20199;-75
2021/01/22 14:47:05;;;;;;;14.55;8.25;;;;;;;;;;5087349;28;20253;-75
2021/01/22 14:49:32;;;;;;;25.80;8.55;;;;;;;;;;5087591;28;20191;-85
2021/01/22 14:51:59;;;;;;;14.20;6.05;;;;;;;;;;5087975;28;20807;-75
2021/01/22 14:54:27;;;;;;;7.70;4.63;;;;;;;;;;5088956;28;20215;-76
2021/01/22 14:56:54;;;;;;;11.52;5.50;;;;;;;;;;5088903;28;20489;-76
2021/01/22 14:59:21;;;;;;;12.43;5.70;;;;;;;;;;5089083;28;20301;-76
2021/01/22 15:01:48;;;;;;;11.75;5.75;;;;;;;;;;5084723;28;20253;-76
2021/01/22 15:04:15;;;;;;;11.70;5.18;;;;;;;;;;5084755;28;20270;-77
2021/01/22 15:06:42;;;;;;;7.07;4.32;;;;;;;;;;5087339;28;20279;-78
2021/01/22 15:09:08;;;;;;;5.05;3.45;;;;;;;;;;5086805;28;20316;-77
2021/01/22 15:11:37;;;;;;;6.45;3.72;;;;;;;;;;5086846;28;20269;-76
2021/01/22 15:14:03;;;;;;;12.70;5.85;;;;;;;;;;5088085;28;20206;-75